sensor_id;sensor_type;location;lat;lon;timestamp;pressure;altitude;pressure_sealevel;temperature;humidity
40872;BME280;26591;43.264;26.940;2023-05-17T00:00:31;98602.31;;;15.70;74.87
40872;BME280;26591;43.264;26.940;2023-05-17T00:02:57;98595.88;;;15.98;73.86
40872;BME280;26591;43.264;26.940;2023-05-17T00:05:23;98593.63;;;15.95;73.51
40872;BME280;26591;43.264;26.940;2023-05-17T00:07:48;98584.94;;;16.07;73.50
40872;BME280;26591;43.264;26.940;2023-05-17T00:10:14;98590.13;;;15.81;73.77
40872;BME280;26591;43.264;26.940;2023-05-17T00:12:39;98587.63;;;16.00;73.21
40872;BME280;26591;43.264;26.940;2023-05-17T00:15:05;98580.22;;;16.41;72.47
40872;BME280;26591;43.264;26.940;2023-05-17T00:17:31;98589.28;;;16.72;71.45
40872;BME280;26591;43.264;26.940;2023-05-17T00:19:56;98579.75;;;16.83;70.85
40872;BME280;26591;43.264;26.940;2023-05-17T00:22:21;98580.78;;;16.82;69.99
40872;BME280;26591;43.264;26.940;2023-05-17T00:24:47;98573.94;;;16.28;71.14
40872;BME280;26591;43.264;26.940;2023-05-17T00:27:12;98574.19;;;16.52;71.26
40872;BME280;26591;43.264;26.940;2023-05-17T00:29:38;98579.84;;;16.95;70.08
40872;BME280;26591;43.264;26.940;2023-05-17T00:32:04;98574.38;;;17.08;68.86
40872;BME280;26591;43.264;26.940;2023-05-17T00:34:29;98568.59;;;17.11;68.27
40872;BME280;26591;43.264;26.940;2023-05-17T00:36:55;98559.44;;;17.44;68.05
40872;BME280;26591;43.264;26.940;2023-05-17T00:39:20;98547.78;;;17.57;66.49
40872;BME280;26591;43.264;26.940;2023-05-17T00:41:46;98558.00;;;17.60;66.69
40872;BME280;26591;43.264;26.940;2023-05-17T00:44:11;98562.56;;;17.78;66.05
40872;BME280;26591;43.264;26.940;2023-05-17T00:46:37;98578.28;;;17.87;65.23
40872;BME280;26591;43.264;26.940;2023-05-17T00:49:02;98594.03;;;17.95;65.03
40872;BME280;26591;43.264;26.940;2023-05-17T00:51:28;98593.66;;;17.91;64.81
40872;BME280;26591;43.264;26.940;2023-05-17T00:53:53;98594.88;;;17.95;64.28
40872;BME280;26591;43.264;26.940;2023-05-17T00:56:19;98584.53;;;17.99;64.01
40872;BME280;26591;43.264;26.940;2023-05-17T00:58:45;98585.28;;;17.88;63.82
40872;BME280;26591;43.264;26.940;2023-05-17T01:01:13;98573.03;;;17.98;64.40
40872;BME280;26591;43.264;26.940;2023-05-17T01:03:38;98584.47;;;18.06;63.86
40872;BME280;26591;43.264;26.940;2023-05-17T01:06:05;98590.41;;;18.08;63.50
40872;BME280;26591;43.264;26.940;2023-05-17T01:08:30;98605.78;;;18.12;63.41
40872;BME280;26591;43.264;26.940;2023-05-17T01:11:17;98615.53;;;18.25;62.57
40872;BME280;26591;43.264;26.940;2023-05-17T01:14:04;98611.97;;;17.94;63.30
40872;BME280;26591;43.264;26.940;2023-05-17T01:16:38;98613.75;;;17.63;64.20
40872;BME280;26591;43.264;26.940;2023-05-17T01:19:54;98610.81;;;17.72;64.15
40872;BME280;26591;43.264;26.940;2023-05-17T01:27:48;98621.44;;;17.78;63.46
40872;BME280;26591;43.264;26.940;2023-05-17T01:30:15;98611.38;;;17.92;63.28
40872;BME280;26591;43.264;26.940;2023-05-17T01:32:42;98616.94;;;18.09;62.94
40872;BME280;26591;43.264;26.940;2023-05-17T01:35:28;98615.47;;;18.13;62.22
40872;BME280;26591;43.264;26.940;2023-05-17T01:37:54;98607.31;;;18.08;62.40
40872;BME280;26591;43.264;26.940;2023-05-17T01:40:20;98610.72;;;17.78;62.82
40872;BME280;26591;43.264;26.940;2023-05-17T01:42:49;98613.19;;;17.36;64.27
40872;BME280;26591;43.264;26.940;2023-05-17T01:45:33;98603.78;;;17.33;64.55
40872;BME280;26591;43.264;26.940;2023-05-17T01:50:57;98604.09;;;17.00;65.63
40872;BME280;26591;43.264;26.940;2023-05-17T01:53:46;98598.94;;;17.23;65.94
40872;BME280;26591;43.264;26.940;2023-05-17T01:56:19;98584.97;;;17.40;65.03
40872;BME280;26591;43.264;26.940;2023-05-17T01:58:47;98595.09;;;17.38;65.54
40872;BME280;26591;43.264;26.940;2023-05-17T02:01:18;98594.25;;;16.68;66.93
40872;BME280;26591;43.264;26.940;2023-05-17T02:03:47;98597.31;;;16.33;68.82
40872;BME280;26591;43.264;26.940;2023-05-17T02:06:14;98589.84;;;16.10;69.72
40872;BME280;26591;43.264;26.940;2023-05-17T02:08:39;98570.72;;;16.77;68.45
40872;BME280;26591;43.264;26.940;2023-05-17T02:11:05;98565.84;;;16.92;67.31
40872;BME280;26591;43.264;26.940;2023-05-17T02:13:30;98545.91;;;17.20;66.79
40872;BME280;26591;43.264;26.940;2023-05-17T02:16:02;98527.63;;;17.36;66.58
40872;BME280;26591;43.264;26.940;2023-05-17T02:18:28;98524.88;;;17.43;65.88
40872;BME280;26591;43.264;26.940;2023-05-17T02:20:54;98527.41;;;17.19;66.61
40872;BME280;26591;43.264;26.940;2023-05-17T02:23:20;98497.47;;;17.10;67.19
40872;BME280;26591;43.264;26.940;2023-05-17T02:25:45;98486.53;;;16.68;68.14
40872;BME280;26591;43.264;26.940;2023-05-17T02:28:14;98487.47;;;16.55;69.10
40872;BME280;26591;43.264;26.940;2023-05-17T02:30:39;98494.72;;;16.47;69.70
40872;BME280;26591;43.264;26.940;2023-05-17T02:33:05;98485.31;;;16.13;71.21
40872;BME280;26591;43.264;26.940;2023-05-17T02:35:31;98477.69;;;15.78;72.15
40872;BME280;26591;43.264;26.940;2023-05-17T02:37:56;98474.19;;;15.84;72.67
40872;BME280;26591;43.264;26.940;2023-05-17T02:40:22;98473.56;;;15.89;72.98
40872;BME280;26591;43.264;26.940;2023-05-17T02:42:47;98466.84;;;15.79;73.64
40872;BME280;26591;43.264;26.940;2023-05-17T02:45:13;98476.75;;;15.65;73.54
40872;BME280;26591;43.264;26.940;2023-05-17T02:47:38;98476.81;;;15.52;74.30
40872;BME280;26591;43.264;26.940;2023-05-17T02:50:04;98483.03;;;15.32;75.00
40872;BME280;26591;43.264;26.940;2023-05-17T02:52:29;98496.22;;;15.20;75.05
40872;BME280;26591;43.264;26.940;2023-05-17T02:54:55;98508.53;;;15.01;75.79
40872;BME280;26591;43.264;26.940;2023-05-17T02:57:20;98512.03;;;15.02;76.55
40872;BME280;26591;43.264;26.940;2023-05-17T02:59:49;98518.78;;;14.98;76.63
40872;BME280;26591;43.264;26.940;2023-05-17T03:02:15;98513.69;;;14.96;76.63
40872;BME280;26591;43.264;26.940;2023-05-17T03:04:40;98523.72;;;15.01;76.71
40872;BME280;26591;43.264;26.940;2023-05-17T03:07:06;98513.84;;;15.01;76.30
40872;BME280;26591;43.264;26.940;2023-05-17T03:09:31;98515.94;;;14.99;76.36
40872;BME280;26591;43.264;26.940;2023-05-17T03:11:57;98540.94;;;14.98;76.77
40872;BME280;26591;43.264;26.940;2023-05-17T03:14:22;98561.00;;;15.07;77.28
40872;BME280;26591;43.264;26.940;2023-05-17T03:16:48;98566.09;;;15.22;76.27
40872;BME280;26591;43.264;26.940;2023-05-17T03:19:13;98569.34;;;15.38;76.22
40872;BME280;26591;43.264;26.940;2023-05-17T03:21:39;98576.69;;;15.56;75.01
40872;BME280;26591;43.264;26.940;2023-05-17T03:24:05;98581.00;;;15.64;74.58
40872;BME280;26591;43.264;26.940;2023-05-17T03:26:33;98583.22;;;15.67;74.69
40872;BME280;26591;43.264;26.940;2023-05-17T03:28:58;98592.09;;;15.47;74.16
40872;BME280;26591;43.264;26.940;2023-05-17T03:31:24;98610.78;;;15.47;74.46
40872;BME280;26591;43.264;26.940;2023-05-17T03:33:50;98613.84;;;15.44;74.70
40872;BME280;26591;43.264;26.940;2023-05-17T03:36:15;98620.16;;;15.63;73.59
40872;BME280;26591;43.264;26.940;2023-05-17T03:38:41;98615.13;;;15.28;74.94
40872;BME280;26591;43.264;26.940;2023-05-17T03:41:06;98612.00;;;15.38;74.91
40872;BME280;26591;43.264;26.940;2023-05-17T03:43:32;98601.72;;;15.62;74.55
40872;BME280;26591;43.264;26.940;2023-05-17T03:45:58;98605.63;;;15.52;74.29
40872;BME280;26591;43.264;26.940;2023-05-17T03:48:23;98606.81;;;15.63;73.87
40872;BME280;26591;43.264;26.940;2023-05-17T03:50:49;98606.22;;;15.54;73.97
40872;BME280;26591;43.264;26.940;2023-05-17T03:53:14;98597.22;;;15.49;74.80
40872;BME280;26591;43.264;26.940;2023-05-17T03:55:40;98606.22;;;15.54;74.24
40872;BME280;26591;43.264;26.940;2023-05-17T03:58:06;98610.50;;;15.69;74.39
40872;BME280;26591;43.264;26.940;2023-05-17T04:00:31;98615.22;;;15.80;74.45
40872;BME280;26591;43.264;26.940;2023-05-17T04:02:57;98612.31;;;15.89;73.69
40872;BME280;26591;43.264;26.940;2023-05-17T04:05:23;98609.25;;;15.85;72.98
40872;BME280;26591;43.264;26.940;2023-05-17T04:07:48;98612.94;;;15.91;73.54
40872;BME280;26591;43.264;26.940;2023-05-17T04:10:14;98619.00;;;16.11;72.98
40872;BME280;26591;43.264;26.940;2023-05-17T04:12:39;98634.66;;;15.94;72.69
40872;BME280;26591;43.264;26.940;2023-05-17T04:15:06;98624.84;;;15.88;73.29
40872;BME280;26591;43.264;26.940;2023-05-17T04:17:31;98637.69;;;16.05;73.16
40872;BME280;26591;43.264;26.940;2023-05-17T04:19:57;98637.94;;;16.03;72.33
40872;BME280;26591;43.264;26.940;2023-05-17T04:25:28;98625.00;;;16.00;72.89
40872;BME280;26591;43.264;26.940;2023-05-17T04:27:53;98630.16;;;16.01;72.95
40872;BME280;26591;43.264;26.940;2023-05-17T04:30:19;98616.44;;;16.30;72.56
40872;BME280;26591;43.264;26.940;2023-05-17T04:32:46;98635.06;;;16.75;75.41
40872;BME280;26591;43.264;26.940;2023-05-17T04:35:11;98635.88;;;17.08;73.52
40872;BME280;26591;43.264;26.940;2023-05-17T04:37:37;98637.47;;;17.16;72.51
40872;BME280;26591;43.264;26.940;2023-05-17T04:40:06;98636.31;;;17.30;70.33
40872;BME280;26591;43.264;26.940;2023-05-17T04:42:32;98625.75;;;16.85;69.00
40872;BME280;26591;43.264;26.940;2023-05-17T04:44:57;98620.75;;;16.31;69.74
40872;BME280;26591;43.264;26.940;2023-05-17T04:47:23;98643.91;;;15.98;71.02
40872;BME280;26591;43.264;26.940;2023-05-17T04:49:48;98665.78;;;15.21;75.71
40872;BME280;26591;43.264;26.940;2023-05-17T04:52:16;98672.53;;;14.28;79.49
40872;BME280;26591;43.264;26.940;2023-05-17T04:54:41;98670.28;;;13.83;82.75
40872;BME280;26591;43.264;26.940;2023-05-17T04:57:08;98679.00;;;14.12;83.54
40872;BME280;26591;43.264;26.940;2023-05-17T04:59:33;98678.47;;;14.30;82.52
40872;BME280;26591;43.264;26.940;2023-05-17T05:01:59;98696.28;;;14.30;83.21
40872;BME280;26591;43.264;26.940;2023-05-17T05:04:24;98699.94;;;13.80;86.27
40872;BME280;26591;43.264;26.940;2023-05-17T05:06:50;98703.41;;;13.81;86.93
40872;BME280;26591;43.264;26.940;2023-05-17T05:09:16;98696.91;;;13.90;86.27
40872;BME280;26591;43.264;26.940;2023-05-17T05:11:41;98695.66;;;13.86;86.73
40872;BME280;26591;43.264;26.940;2023-05-17T05:14:07;98688.53;;;14.35;85.77
40872;BME280;26591;43.264;26.940;2023-05-17T05:16:32;98688.47;;;14.70;84.99
40872;BME280;26591;43.264;26.940;2023-05-17T05:18:58;98679.66;;;14.76;84.61
40872;BME280;26591;43.264;26.940;2023-05-17T05:21:23;98671.91;;;15.02;83.94
40872;BME280;26591;43.264;26.940;2023-05-17T05:23:49;98673.75;;;15.35;83.34
40872;BME280;26591;43.264;26.940;2023-05-17T05:26:14;98665.75;;;15.41;81.99
40872;BME280;26591;43.264;26.940;2023-05-17T05:28:40;98670.25;;;15.48;80.89
40872;BME280;26591;43.264;26.940;2023-05-17T05:31:05;98663.66;;;15.70;79.92
40872;BME280;26591;43.264;26.940;2023-05-17T05:33:30;98661.78;;;15.78;79.57
40872;BME280;26591;43.264;26.940;2023-05-17T05:35:56;98652.75;;;15.92;78.61
40872;BME280;26591;43.264;26.940;2023-05-17T05:38:21;98655.63;;;15.91;77.94
40872;BME280;26591;43.264;26.940;2023-05-17T05:40:47;98655.81;;;15.96;77.98
40872;BME280;26591;43.264;26.940;2023-05-17T05:43:13;98663.56;;;16.11;77.52
40872;BME280;26591;43.264;26.940;2023-05-17T05:45:39;98674.66;;;16.08;76.21
40872;BME280;26591;43.264;26.940;2023-05-17T05:48:12;98685.56;;;16.06;76.59
40872;BME280;26591;43.264;26.940;2023-05-17T05:50:39;98688.66;;;15.96;76.43
40872;BME280;26591;43.264;26.940;2023-05-17T05:53:05;98693.41;;;15.67;78.01
40872;BME280;26591;43.264;26.940;2023-05-17T05:55:31;98690.91;;;16.06;79.23
40872;BME280;26591;43.264;26.940;2023-05-17T05:57:56;98689.00;;;16.13;77.93
40872;BME280;26591;43.264;26.940;2023-05-17T06:00:22;98692.59;;;15.80;78.47
40872;BME280;26591;43.264;26.940;2023-05-17T06:02:47;98701.03;;;15.50;77.85
40872;BME280;26591;43.264;26.940;2023-05-17T06:05:13;98698.78;;;15.20;78.28
40872;BME280;26591;43.264;26.940;2023-05-17T06:07:38;98692.84;;;15.25;78.92
40872;BME280;26591;43.264;26.940;2023-05-17T06:10:06;98690.78;;;15.40;79.64
40872;BME280;26591;43.264;26.940;2023-05-17T06:12:32;98695.69;;;15.17;80.07
40872;BME280;26591;43.264;26.940;2023-05-17T06:14:57;98692.59;;;15.53;78.48
40872;BME280;26591;43.264;26.940;2023-05-17T06:17:23;98687.28;;;15.47;79.39
40872;BME280;26591;43.264;26.940;2023-05-17T06:19:48;98683.16;;;15.57;78.80
40872;BME280;26591;43.264;26.940;2023-05-17T06:22:14;98688.47;;;15.71;77.93
40872;BME280;26591;43.264;26.940;2023-05-17T06:24:40;98694.41;;;15.80;77.60
40872;BME280;26591;43.264;26.940;2023-05-17T06:27:05;98696.69;;;15.76;78.25
40872;BME280;26591;43.264;26.940;2023-05-17T06:29:31;98682.72;;;15.94;78.69
40872;BME280;26591;43.264;26.940;2023-05-17T06:31:57;98688.97;;;16.66;79.49
40872;BME280;26591;43.264;26.940;2023-05-17T06:34:24;98687.41;;;17.22;77.27
40872;BME280;26591;43.264;26.940;2023-05-17T06:36:50;98691.88;;;17.72;75.91
40872;BME280;26591;43.264;26.940;2023-05-17T06:39:16;98687.00;;;17.88;73.59
40872;BME280;26591;43.264;26.940;2023-05-17T06:41:41;98702.44;;;18.11;72.77
40872;BME280;26591;43.264;26.940;2023-05-17T06:44:07;98717.97;;;18.21;72.46
40872;BME280;26591;43.264;26.940;2023-05-17T06:46:32;98720.25;;;18.17;70.31
40872;BME280;26591;43.264;26.940;2023-05-17T06:48:58;98719.06;;;18.50;69.92
40872;BME280;26591;43.264;26.940;2023-05-17T06:51:23;98714.97;;;18.48;67.95
40872;BME280;26591;43.264;26.940;2023-05-17T06:53:49;98705.31;;;18.09;67.89
40872;BME280;26591;43.264;26.940;2023-05-17T06:56:15;98700.19;;;18.08;68.94
40872;BME280;26591;43.264;26.940;2023-05-17T06:58:40;98694.09;;;18.01;69.46
40872;BME280;26591;43.264;26.940;2023-05-17T07:01:06;98698.13;;;17.66;70.52
40872;BME280;26591;43.264;26.940;2023-05-17T07:03:44;98705.09;;;17.67;71.37
40872;BME280;26591;43.264;26.940;2023-05-17T07:06:09;98702.34;;;17.55;72.65
40872;BME280;26591;43.264;26.940;2023-05-17T07:08:35;98700.91;;;17.34;73.08
40872;BME280;26591;43.264;26.940;2023-05-17T07:11:00;98694.50;;;17.35;74.17
40872;BME280;26591;43.264;26.940;2023-05-17T07:13:27;98693.56;;;17.48;73.15
40872;BME280;26591;43.264;26.940;2023-05-17T07:15:52;98696.47;;;17.46;73.15
40872;BME280;26591;43.264;26.940;2023-05-17T07:18:18;98684.97;;;17.14;72.33
40872;BME280;26591;43.264;26.940;2023-05-17T07:20:44;98686.19;;;16.86;71.57
40872;BME280;26591;43.264;26.940;2023-05-17T07:23:09;98681.03;;;16.52;73.37
40872;BME280;26591;43.264;26.940;2023-05-17T07:25:35;98680.16;;;16.65;71.54
40872;BME280;26591;43.264;26.940;2023-05-17T07:28:03;98671.41;;;16.83;71.49
40872;BME280;26591;43.264;26.940;2023-05-17T07:30:29;98674.00;;;16.97;71.86
40872;BME280;26591;43.264;26.940;2023-05-17T07:32:55;98667.03;;;16.96;72.66
40872;BME280;26591;43.264;26.940;2023-05-17T07:35:20;98660.50;;;17.17;72.85
40872;BME280;26591;43.264;26.940;2023-05-17T07:37:46;98669.22;;;17.31;72.07
40872;BME280;26591;43.264;26.940;2023-05-17T07:40:11;98668.63;;;17.29;70.75
40872;BME280;26591;43.264;26.940;2023-05-17T07:42:37;98675.03;;;16.96;71.32
40872;BME280;26591;43.264;26.940;2023-05-17T07:45:03;98682.69;;;16.85;73.42
40872;BME280;26591;43.264;26.940;2023-05-17T07:47:28;98687.44;;;15.85;76.32
40872;BME280;26591;43.264;26.940;2023-05-17T07:49:55;98692.97;;;16.50;77.47
40872;BME280;26591;43.264;26.940;2023-05-17T07:52:20;98690.13;;;15.72;76.03
40872;BME280;26591;43.264;26.940;2023-05-17T07:54:46;98699.22;;;16.30;76.63
40872;BME280;26591;43.264;26.940;2023-05-17T07:57:11;98698.22;;;16.70;76.78
40872;BME280;26591;43.264;26.940;2023-05-17T07:59:36;98701.22;;;16.80;74.49
40872;BME280;26591;43.264;26.940;2023-05-17T08:02:02;98697.56;;;16.74;74.10
40872;BME280;26591;43.264;26.940;2023-05-17T08:04:27;98700.09;;;16.62;74.69
40872;BME280;26591;43.264;26.940;2023-05-17T08:06:53;98701.59;;;15.99;74.76
40872;BME280;26591;43.264;26.940;2023-05-17T08:09:19;98699.75;;;15.93;74.29
40872;BME280;26591;43.264;26.940;2023-05-17T08:11:45;98705.91;;;16.00;74.29
40872;BME280;26591;43.264;26.940;2023-05-17T08:14:15;98702.47;;;15.19;73.61
40872;BME280;26591;43.264;26.940;2023-05-17T08:16:41;98700.19;;;15.09;74.38
40872;BME280;26591;43.264;26.940;2023-05-17T08:19:10;98703.91;;;15.22;75.98
40872;BME280;26591;43.264;26.940;2023-05-17T08:21:37;98697.13;;;15.33;74.74
40872;BME280;26591;43.264;26.940;2023-05-17T08:24:03;98695.03;;;15.95;75.22
40872;BME280;26591;43.264;26.940;2023-05-17T08:26:29;98685.16;;;16.02;73.56
40872;BME280;26591;43.264;26.940;2023-05-17T08:28:54;98691.19;;;16.37;73.56
40872;BME280;26591;43.264;26.940;2023-05-17T08:31:20;98691.44;;;16.28;73.61
40872;BME280;26591;43.264;26.940;2023-05-17T08:33:45;98679.50;;;16.31;72.75
40872;BME280;26591;43.264;26.940;2023-05-17T08:39:29;98665.72;;;16.73;73.10
40872;BME280;26591;43.264;26.940;2023-05-17T08:41:55;98661.44;;;17.04;72.03
40872;BME280;26591;43.264;26.940;2023-05-17T08:44:26;98664.00;;;17.17;71.42
40872;BME280;26591;43.264;26.940;2023-05-17T08:46:55;98657.63;;;17.18;69.68
40872;BME280;26591;43.264;26.940;2023-05-17T08:49:21;98655.38;;;17.15;69.92
40872;BME280;26591;43.264;26.940;2023-05-17T08:51:52;98650.06;;;17.08;68.82
40872;BME280;26591;43.264;26.940;2023-05-17T08:54:18;98649.25;;;17.08;69.16
40872;BME280;26591;43.264;26.940;2023-05-17T08:56:44;98659.69;;;17.42;67.74
40872;BME280;26591;43.264;26.940;2023-05-17T08:59:12;98669.72;;;17.21;68.52
40872;BME280;26591;43.264;26.940;2023-05-17T09:01:42;98674.72;;;16.40;70.70
40872;BME280;26591;43.264;26.940;2023-05-17T09:04:08;98683.63;;;16.20;72.70
40872;BME280;26591;43.264;26.940;2023-05-17T09:06:36;98680.47;;;15.78;73.86
40872;BME280;26591;43.264;26.940;2023-05-17T09:09:04;98670.44;;;15.53;75.01
40872;BME280;26591;43.264;26.940;2023-05-17T09:11:32;98677.59;;;15.93;75.67
40872;BME280;26591;43.264;26.940;2023-05-17T09:13:59;98668.91;;;16.11;74.22
40872;BME280;26591;43.264;26.940;2023-05-17T09:16:27;98659.13;;;16.37;73.03
40872;BME280;26591;43.264;26.940;2023-05-17T09:18:54;98657.34;;;16.62;72.19
40872;BME280;26591;43.264;26.940;2023-05-17T09:21:21;98651.16;;;17.01;72.33
40872;BME280;26591;43.264;26.940;2023-05-17T09:23:48;98657.38;;;17.20;71.45
40872;BME280;26591;43.264;26.940;2023-05-17T09:26:13;98660.78;;;17.08;70.93
40872;BME280;26591;43.264;26.940;2023-05-17T09:28:40;98658.97;;;17.28;69.90
40872;BME280;26591;43.264;26.940;2023-05-17T09:31:07;98660.88;;;16.95;69.69
40872;BME280;26591;43.264;26.940;2023-05-17T09:33:42;98658.13;;;16.70;71.36
40872;BME280;26591;43.264;26.940;2023-05-17T09:36:23;98655.47;;;17.02;70.12
40872;BME280;26591;43.264;26.940;2023-05-17T09:38:56;98661.25;;;16.60;71.05
40872;BME280;26591;43.264;26.940;2023-05-17T09:41:27;98664.59;;;16.87;72.19
40872;BME280;26591;43.264;26.940;2023-05-17T09:43:53;98663.13;;;16.59;72.50
40872;BME280;26591;43.264;26.940;2023-05-17T09:46:21;98657.16;;;16.19;75.21
40872;BME280;26591;43.264;26.940;2023-05-17T09:48:52;98660.41;;;16.27;75.62
40872;BME280;26591;43.264;26.940;2023-05-17T09:51:18;98665.81;;;16.14;73.91
40872;BME280;26591;43.264;26.940;2023-05-17T09:53:43;98660.56;;;15.87;74.82
40872;BME280;26591;43.264;26.940;2023-05-17T09:56:09;98660.81;;;16.31;75.30
40872;BME280;26591;43.264;26.940;2023-05-17T09:58:36;98652.31;;;16.47;74.56
40872;BME280;26591;43.264;26.940;2023-05-17T10:01:04;98653.09;;;16.48;73.63
40872;BME280;26591;43.264;26.940;2023-05-17T10:03:34;98640.34;;;16.50;71.90
40872;BME280;26591;43.264;26.940;2023-05-17T10:06:00;98651.06;;;15.98;70.66
40872;BME280;26591;43.264;26.940;2023-05-17T10:08:28;98653.28;;;16.53;71.35
40872;BME280;26591;43.264;26.940;2023-05-17T10:10:55;98653.25;;;16.60;69.78
40872;BME280;26591;43.264;26.940;2023-05-17T10:13:26;98646.19;;;17.04;68.57
40872;BME280;26591;43.264;26.940;2023-05-17T10:15:54;98647.53;;;17.20;69.80
40872;BME280;26591;43.264;26.940;2023-05-17T10:18:27;98654.63;;;17.52;67.81
40872;BME280;26591;43.264;26.940;2023-05-17T10:20:54;98642.91;;;17.53;65.90
40872;BME280;26591;43.264;26.940;2023-05-17T10:23:20;98660.94;;;17.58;66.27
40872;BME280;26591;43.264;26.940;2023-05-17T10:25:49;98652.16;;;17.50;68.22
40872;BME280;26591;43.264;26.940;2023-05-17T10:28:16;98650.09;;;17.52;68.73
40872;BME280;26591;43.264;26.940;2023-05-17T10:30:42;98657.63;;;17.37;70.24
40872;BME280;26591;43.264;26.940;2023-05-17T10:33:08;98655.53;;;16.95;71.34
40872;BME280;26591;43.264;26.940;2023-05-17T10:35:37;98653.47;;;16.97;71.79
40872;BME280;26591;43.264;26.940;2023-05-17T10:38:03;98649.03;;;17.10;72.04
40872;BME280;26591;43.264;26.940;2023-05-17T10:40:29;98652.75;;;17.34;70.59
40872;BME280;26591;43.264;26.940;2023-05-17T10:42:56;98633.75;;;17.61;70.49
40872;BME280;26591;43.264;26.940;2023-05-17T10:45:24;98633.31;;;17.64;69.01
40872;BME280;26591;43.264;26.940;2023-05-17T10:47:53;98627.22;;;17.75;70.11
40872;BME280;26591;43.264;26.940;2023-05-17T10:50:23;98627.06;;;17.89;69.66
40872;BME280;26591;43.264;26.940;2023-05-17T10:52:50;98616.16;;;18.09;67.37
40872;BME280;26591;43.264;26.940;2023-05-17T10:55:25;98607.78;;;18.17;65.94
40872;BME280;26591;43.264;26.940;2023-05-17T10:58:20;98609.38;;;18.06;65.87
40872;BME280;26591;43.264;26.940;2023-05-17T11:00:50;98611.44;;;18.23;65.18
40872;BME280;26591;43.264;26.940;2023-05-17T11:03:25;98601.97;;;18.20;65.90
40872;BME280;26591;43.264;26.940;2023-05-17T11:06:18;98608.34;;;18.38;65.19
40872;BME280;26591;43.264;26.940;2023-05-17T11:09:14;98607.59;;;18.00;65.01
40872;BME280;26591;43.264;26.940;2023-05-17T11:12:03;98606.75;;;18.49;64.05
40872;BME280;26591;43.264;26.940;2023-05-17T11:17:13;98587.13;;;18.79;63.52
40872;BME280;26591;43.264;26.940;2023-05-17T11:22:34;98588.75;;;18.25;62.72
40872;BME280;26591;43.264;26.940;2023-05-17T11:25:05;98593.06;;;17.89;63.68
40872;BME280;26591;43.264;26.940;2023-05-17T11:27:37;98591.44;;;17.88;64.62
40872;BME280;26591;43.264;26.940;2023-05-17T11:30:15;98590.75;;;18.11;64.29
40872;BME280;26591;43.264;26.940;2023-05-17T11:32:48;98588.00;;;18.18;64.28
40872;BME280;26591;43.264;26.940;2023-05-17T11:35:16;98582.34;;;18.38;64.82
40872;BME280;26591;43.264;26.940;2023-05-17T11:37:42;98592.31;;;18.50;64.20
40872;BME280;26591;43.264;26.940;2023-05-17T11:40:09;98582.53;;;18.13;66.02
40872;BME280;26591;43.264;26.940;2023-05-17T11:42:36;98581.66;;;17.82;66.99
40872;BME280;26591;43.264;26.940;2023-05-17T11:45:04;98572.94;;;18.05;65.21
40872;BME280;26591;43.264;26.940;2023-05-17T11:47:46;98574.50;;;18.13;65.40
40872;BME280;26591;43.264;26.940;2023-05-17T11:50:14;98574.81;;;18.35;64.80
40872;BME280;26591;43.264;26.940;2023-05-17T11:52:41;98571.56;;;18.45;65.44
40872;BME280;26591;43.264;26.940;2023-05-17T11:55:07;98568.25;;;17.82;66.09
40872;BME280;26591;43.264;26.940;2023-05-17T11:57:38;98571.38;;;17.79;65.65
40872;BME280;26591;43.264;26.940;2023-05-17T12:00:23;98570.50;;;17.85;65.17
40872;BME280;26591;43.264;26.940;2023-05-17T12:02:51;98565.19;;;17.97;65.44
40872;BME280;26591;43.264;26.940;2023-05-17T12:05:20;98559.78;;;17.11;67.78
40872;BME280;26591;43.264;26.940;2023-05-17T12:07:46;98566.31;;;16.32;69.89
40872;BME280;26591;43.264;26.940;2023-05-17T12:10:14;98560.59;;;16.28;70.08
40872;BME280;26591;43.264;26.940;2023-05-17T12:12:40;98562.06;;;16.56;70.69
40872;BME280;26591;43.264;26.940;2023-05-17T12:15:06;98568.38;;;16.30;71.48
40872;BME280;26591;43.264;26.940;2023-05-17T12:17:36;98566.44;;;16.76;70.10
40872;BME280;26591;43.264;26.940;2023-05-17T12:20:08;98565.81;;;16.74;70.75
40872;BME280;26591;43.264;26.940;2023-05-17T12:22:34;98571.00;;;16.69;71.22
40872;BME280;26591;43.264;26.940;2023-05-17T12:25:23;98559.03;;;16.71;70.76
40872;BME280;26591;43.264;26.940;2023-05-17T12:27:51;98554.34;;;16.99;71.13
40872;BME280;26591;43.264;26.940;2023-05-17T12:30:17;98553.28;;;17.00;70.57
40872;BME280;26591;43.264;26.940;2023-05-17T12:32:43;98559.13;;;17.15;70.09
40872;BME280;26591;43.264;26.940;2023-05-17T12:35:09;98553.69;;;17.22;70.51
40872;BME280;26591;43.264;26.940;2023-05-17T12:37:36;98555.16;;;17.18;72.10
40872;BME280;26591;43.264;26.940;2023-05-17T12:40:02;98551.63;;;17.43;71.08
40872;BME280;26591;43.264;26.940;2023-05-17T12:42:30;98555.78;;;17.38;70.10
40872;BME280;26591;43.264;26.940;2023-05-17T12:44:58;98546.78;;;17.70;70.12
40872;BME280;26591;43.264;26.940;2023-05-17T12:47:24;98545.72;;;18.08;68.80
40872;BME280;26591;43.264;26.940;2023-05-17T12:49:54;98543.69;;;18.34;68.31
40872;BME280;26591;43.264;26.940;2023-05-17T12:52:20;98544.22;;;18.12;68.65
40872;BME280;26591;43.264;26.940;2023-05-17T12:54:46;98542.19;;;18.38;67.67
40872;BME280;26591;43.264;26.940;2023-05-17T12:57:12;98546.59;;;18.33;68.50
40872;BME280;26591;43.264;26.940;2023-05-17T12:59:51;98539.44;;;18.45;70.65
40872;BME280;26591;43.264;26.940;2023-05-17T13:02:20;98534.19;;;18.50;69.20
40872;BME280;26591;43.264;26.940;2023-05-17T13:04:47;98535.31;;;18.42;69.04
40872;BME280;26591;43.264;26.940;2023-05-17T13:07:20;98533.81;;;18.04;68.12
40872;BME280;26591;43.264;26.940;2023-05-17T13:09:47;98537.00;;;18.13;67.24
40872;BME280;26591;43.264;26.940;2023-05-17T13:12:22;98529.41;;;18.10;69.33